CheckWX is a tool to help pilots better visualize weather data.  It is not intended as a substitute for an official pre-flight weather briefing.

16:21:38 UTC

KOQN METAR
Brandywine Airport
West Chester, Pennsylvania, USA
Current

7 mins ago

KOQN 241615Z AUTO 14004KT 10SM CLR 28/16 A2990 RMK AO2
Observed
Jun-24 @ 16:15 UTC
Wind
  • 140° at 4 KTS
Visibility
10 SM
Flight Rules
VFR
Cloud Levels
  • Clear skies
Temperature
28°C / 82°F
Dewpoint
16°C / 61°F
Heat Index
28°C / 82°F
Humidity
48%
Altimeter
29.9" Hg
Pressure
1012.52 hPa
Previous

27 mins ago

KOQN 241555Z AUTO 12003KT 10SM CLR 27/15 A2991 RMK AO2
Observed
Jun-24 @ 15:55 UTC
Wind
  • 120° at 3 KTS
Visibility
10 SM
Flight Rules
VFR
Cloud Levels
  • Clear skies
Temperature
27°C / 81°F
Dewpoint
15°C / 59°F
Heat Index
27°C / 81°F
Humidity
48%
Altimeter
29.91" Hg
Pressure
1012.92 hPa
Previous

47 mins ago

KOQN 241535Z AUTO 00000KT 10SM CLR 27/15 A2991 RMK AO2
Observed
Jun-24 @ 15:35 UTC
Visibility
10 SM
Flight Rules
VFR
Cloud Levels
  • Clear skies
Temperature
27°C / 81°F
Dewpoint
15°C / 59°F
Heat Index
27°C / 81°F
Humidity
48%
Altimeter
29.91" Hg
Pressure
1012.92 hPa